Time;durP1;ratioP1;P1;durP2;ratioP2;P2;SDS_P1;SDS_P2;PMS_P1;PMS_P2;Temp;Humidity;BMP_temperature;BMP_pressure;BME280_temperature;BME280_humidity;BME280_pressure;Samples;Min_cycle;Max_cycle;Signal;HPM_P1;HPM_P2
2021/05/04 00:02:06;;;;;;;4.47;3.53;;;;;;;;;;5011654;28;20721;-55
2021/05/04 00:04:33;;;;;;;7.20;3.30;;;;;;;;;;5012309;28;20208;-56
2021/05/04 00:06:59;;;;;;;3.47;3.17;;;;;;;;;;5011974;28;20233;-53
2021/05/04 00:09:26;;;;;;;3.83;2.87;;;;;;;;;;5012385;28;20213;-51
2021/05/04 00:11:53;;;;;;;5.67;3.27;;;;;;;;;;5011731;28;20231;-53
2021/05/04 00:14:19;;;;;;;4.80;3.23;;;;;;;;;;5012063;28;20212;-53
2021/05/04 00:16:47;;;;;;;4.80;3.33;;;;;;;;;;5011593;28;20234;-55
2021/05/04 00:19:13;;;;;;;3.30;2.90;;;;;;;;;;5012156;28;20212;-57
2021/05/04 00:21:40;;;;;;;6.00;3.23;;;;;;;;;;5011703;28;20206;-54
2021/05/04 00:24:07;;;;;;;4.50;3.27;;;;;;;;;;5012003;28;20221;-56
2021/05/04 00:26:33;;;;;;;7.10;2.87;;;;;;;;;;5011759;28;20209;-55
2021/05/04 00:29:00;;;;;;;5.00;3.07;;;;;;;;;;5011858;28;20217;-58
2021/05/04 00:31:26;;;;;;;4.10;3.20;;;;;;;;;;5011600;28;20212;-54
2021/05/04 00:33:54;;;;;;;5.83;3.20;;;;;;;;;;5012388;28;20598;-56
2021/05/04 00:36:20;;;;;;;4.63;2.97;;;;;;;;;;5011756;28;20678;-54
2021/05/04 00:38:47;;;;;;;3.93;3.10;;;;;;;;;;5012204;28;20208;-54
2021/05/04 00:41:13;;;;;;;5.27;3.10;;;;;;;;;;5011858;28;20258;-56
2021/05/04 00:43:40;;;;;;;4.67;3.23;;;;;;;;;;5011646;28;20235;-55
2021/05/04 00:46:06;;;;;;;5.57;2.90;;;;;;;;;;5011799;28;20203;-53
2021/05/04 00:48:33;;;;;;;4.23;2.77;;;;;;;;;;5012720;28;20339;-55
2021/05/04 00:51:01;;;;;;;5.20;2.87;;;;;;;;;;5015137;28;20293;-55
2021/05/04 00:53:29;;;;;;;4.93;2.57;;;;;;;;;;5015367;28;20236;-59
2021/05/04 00:55:57;;;;;;;3.70;2.87;;;;;;;;;;5015067;28;20285;-59
2021/05/04 00:58:24;;;;;;;3.67;2.70;;;;;;;;;;5015301;28;20229;-55
2021/05/04 01:00:51;;;;;;;10.17;2.60;;;;;;;;;;5015381;28;20215;-54
2021/05/04 01:03:18;;;;;;;5.43;3.30;;;;;;;;;;5017923;28;20232;-55
2021/05/04 01:05:45;;;;;;;4.07;2.70;;;;;;;;;;5016303;28;20218;-51
2021/05/04 01:08:12;;;;;;;3.07;2.50;;;;;;;;;;5014889;28;20578;-54
2021/05/04 01:10:39;;;;;;;5.47;2.60;;;;;;;;;;5014687;28;20292;-57
2021/05/04 01:13:06;;;;;;;5.90;2.80;;;;;;;;;;5016631;28;20301;-55
2021/05/04 01:15:33;;;;;;;4.57;2.70;;;;;;;;;;5017470;28;20719;-58
2021/05/04 01:17:59;;;;;;;2.77;2.50;;;;;;;;;;5017724;28;20709;-56
2021/05/04 01:20:26;;;;;;;2.60;2.30;;;;;;;;;;5014593;28;20212;-57
2021/05/04 01:22:54;;;;;;;4.27;2.60;;;;;;;;;;5014379;28;20230;-53
2021/05/04 01:25:20;;;;;;;5.33;2.53;;;;;;;;;;5014604;28;20296;-59
2021/05/04 01:27:47;;;;;;;5.47;2.77;;;;;;;;;;5014643;28;20213;-58
2021/05/04 01:30:14;;;;;;;3.30;2.70;;;;;;;;;;5014478;28;20209;-54
2021/05/04 01:32:40;;;;;;;2.77;2.40;;;;;;;;;;5014454;28;20234;-56
2021/05/04 01:35:08;;;;;;;4.37;2.40;;;;;;;;;;5014318;28;20704;-57
2021/05/04 01:37:35;;;;;;;3.13;2.60;;;;;;;;;;5014213;28;20234;-50
2021/05/04 01:40:02;;;;;;;2.83;2.40;;;;;;;;;;5013908;28;20236;-57
2021/05/04 01:42:28;;;;;;;4.50;2.80;;;;;;;;;;5014354;28;20229;-52
2021/05/04 01:44:55;;;;;;;2.87;2.27;;;;;;;;;;5014224;28;20217;-52
2021/05/04 01:47:21;;;;;;;4.23;2.53;;;;;;;;;;5013958;28;20689;-55
2021/05/04 01:49:48;;;;;;;4.77;2.60;;;;;;;;;;5013973;28;20209;-53
2021/05/04 01:52:15;;;;;;;3.60;2.20;;;;;;;;;;5014001;28;20602;-54
2021/05/04 01:54:42;;;;;;;2.77;2.37;;;;;;;;;;5013825;28;20210;-54
2021/05/04 01:57:10;;;;;;;5.80;2.20;;;;;;;;;;5013716;28;20726;-57
2021/05/04 01:59:36;;;;;;;2.50;2.30;;;;;;;;;;5013448;28;20219;-52
2021/05/04 02:02:03;;;;;;;2.73;2.00;;;;;;;;;;5013026;28;20234;-53
2021/05/04 02:04:31;;;;;;;6.13;2.03;;;;;;;;;;5013772;28;20765;-52
2021/05/04 02:06:58;;;;;;;3.27;2.10;;;;;;;;;;5013792;28;20217;-56
2021/05/04 02:09:24;;;;;;;3.00;2.33;;;;;;;;;;5013525;28;20204;-55
2021/05/04 02:11:51;;;;;;;3.30;2.20;;;;;;;;;;5013389;28;20642;-54
2021/05/04 02:14:18;;;;;;;5.00;2.10;;;;;;;;;;5013792;28;20205;-55
2021/05/04 02:16:45;;;;;;;2.53;2.20;;;;;;;;;;5013489;28;20228;-53
2021/05/04 02:19:11;;;;;;;3.73;2.10;;;;;;;;;;5013525;28;20214;-55
2021/05/04 02:21:38;;;;;;;8.50;2.17;;;;;;;;;;5013072;28;20214;-54
2021/05/04 02:24:05;;;;;;;3.93;1.90;;;;;;;;;;5013511;28;20209;-57
2021/05/04 02:26:31;;;;;;;2.90;2.00;;;;;;;;;;5013504;28;20209;-55
2021/05/04 02:28:58;;;;;;;7.67;2.40;;;;;;;;;;5013339;28;20209;-55
2021/05/04 02:31:26;;;;;;;7.20;2.50;;;;;;;;;;5013276;28;20285;-59
2021/05/04 02:33:52;;;;;;;8.30;1.80;;;;;;;;;;5013107;28;20227;-54
2021/05/04 02:36:19;;;;;;;3.30;1.77;;;;;;;;;;5012949;28;20215;-56
2021/05/04 02:38:45;;;;;;;8.37;2.10;;;;;;;;;;5013264;28;20208;-56
2021/05/04 02:41:12;;;;;;;5.37;1.90;;;;;;;;;;5013179;28;20218;-55
2021/05/04 02:43:38;;;;;;;4.90;1.60;;;;;;;;;;5013106;28;20223;-52
2021/05/04 02:46:06;;;;;;;3.67;1.70;;;;;;;;;;5012986;28;20203;-57
2021/05/04 02:48:38;;;;;;;5.73;1.43;;;;;;;;;;5012934;28;20234;-56
2021/05/04 02:51:05;;;;;;;4.97;1.87;;;;;;;;;;5012937;28;20534;-53
2021/05/04 02:53:32;;;;;;;3.53;1.50;;;;;;;;;;5012958;28;20235;-49
2021/05/04 02:55:58;;;;;;;6.43;1.67;;;;;;;;;;5012781;28;20676;-52
2021/05/04 02:58:26;;;;;;;4.73;1.70;;;;;;;;;;5012808;28;20227;-53
2021/05/04 03:00:52;;;;;;;4.10;1.80;;;;;;;;;;5012600;28;20274;-52
2021/05/04 03:03:19;;;;;;;3.63;2.17;;;;;;;;;;5012559;28;20295;-57
2021/05/04 03:05:46;;;;;;;4.20;2.47;;;;;;;;;;5012508;28;20277;-56
2021/05/04 03:08:13;;;;;;;2.80;1.70;;;;;;;;;;5012896;28;20200;-57
2021/05/04 03:10:39;;;;;;;3.67;2.13;;;;;;;;;;5012607;28;20235;-55
2021/05/04 03:13:06;;;;;;;6.40;2.57;;;;;;;;;;5012126;28;20313;-55
2021/05/04 03:15:32;;;;;;;7.40;2.30;;;;;;;;;;5013065;28;20207;-53
2021/05/04 03:17:59;;;;;;;8.77;3.37;;;;;;;;;;5012502;28;20275;-53
2021/05/04 03:20:26;;;;;;;5.67;2.10;;;;;;;;;;5012622;28;20240;-52
2021/05/04 03:22:53;;;;;;;6.37;2.30;;;;;;;;;;5012583;28;20228;-51
2021/05/04 03:25:20;;;;;;;5.10;3.30;;;;;;;;;;5012557;28;20223;-56
2021/05/04 03:27:46;;;;;;;6.80;2.80;;;;;;;;;;5012277;28;20234;-50
2021/05/04 03:30:13;;;;;;;7.40;2.80;;;;;;;;;;5012295;28;20207;-53
2021/05/04 03:32:42;;;;;;;7.40;2.40;;;;;;;;;;5012081;28;20719;-56
2021/05/04 03:35:09;;;;;;;6.93;2.80;;;;;;;;;;5012450;28;20206;-52
2021/05/04 03:37:36;;;;;;;11.40;2.87;;;;;;;;;;5012241;28;20637;-51
2021/05/04 03:40:04;;;;;;;10.57;2.97;;;;;;;;;;5011779;28;20213;-56
2021/05/04 03:42:30;;;;;;;13.93;3.03;;;;;;;;;;5012082;28;20305;-54
2021/05/04 03:44:57;;;;;;;9.23;3.23;;;;;;;;;;5011927;28;20211;-51
2021/05/04 03:47:23;;;;;;;5.27;2.53;;;;;;;;;;5012358;28;20446;-53
2021/05/04 03:49:50;;;;;;;10.80;3.30;;;;;;;;;;5011960;28;20262;-55
2021/05/04 03:52:16;;;;;;;4.33;3.10;;;;;;;;;;5012157;28;20238;-58
2021/05/04 03:54:43;;;;;;;5.13;2.63;;;;;;;;;;5011890;28;20211;-54
2021/05/04 03:57:11;;;;;;;5.53;2.80;;;;;;;;;;5011857;28;20486;-52
2021/05/04 03:59:37;;;;;;;4.43;3.03;;;;;;;;;;5011803;28;20210;-54
2021/05/04 04:02:04;;;;;;;9.07;3.60;;;;;;;;;;5011981;28;20786;-52
2021/05/04 04:04:30;;;;;;;6.03;3.20;;;;;;;;;;5012035;28;20492;-55
2021/05/04 04:06:57;;;;;;;9.43;3.30;;;;;;;;;;5009780;28;20465;-59
2021/05/04 04:09:23;;;;;;;7.03;3.87;;;;;;;;;;5011834;28;20207;-56
2021/05/04 04:11:50;;;;;;;3.63;3.13;;;;;;;;;;5011447;28;20465;-55
2021/05/04 04:14:17;;;;;;;5.80;3.03;;;;;;;;;;5011609;28;20454;-52
2021/05/04 04:16:44;;;;;;;7.27;3.20;;;;;;;;;;5007762;28;20246;-57
2021/05/04 04:19:10;;;;;;;5.03;3.23;;;;;;;;;;5011768;28;20445;-56
2021/05/04 04:21:37;;;;;;;5.70;3.13;;;;;;;;;;5011775;28;20841;-54
2021/05/04 04:24:03;;;;;;;4.17;3.33;;;;;;;;;;5013028;28;20207;-57
2021/05/04 04:26:30;;;;;;;4.23;3.33;;;;;;;;;;5015537;28;20203;-56
2021/05/04 04:28:56;;;;;;;4.77;3.20;;;;;;;;;;5015267;28;20218;-64
2021/05/04 04:31:24;;;;;;;7.07;3.37;;;;;;;;;;5004578;28;20514;-55
2021/05/04 04:33:50;;;;;;;6.47;3.80;;;;;;;;;;5014275;28;20239;-57
2021/05/04 04:36:17;;;;;;;4.43;3.57;;;;;;;;;;5016102;28;20458;-56
2021/05/04 04:38:43;;;;;;;3.63;3.23;;;;;;;;;;5014885;28;20623;-53
2021/05/04 04:41:10;;;;;;;6.33;3.47;;;;;;;;;;5014837;28;20207;-57
2021/05/04 04:43:36;;;;;;;6.77;3.03;;;;;;;;;;5014980;28;20906;-58
2021/05/04 04:46:03;;;;;;;6.37;3.00;;;;;;;;;;5016269;28;20452;-55
2021/05/04 04:48:30;;;;;;;7.13;3.30;;;;;;;;;;5016258;28;20211;-51
2021/05/04 04:50:57;;;;;;;4.80;3.17;;;;;;;;;;5015100;28;20207;-53
2021/05/04 04:53:24;;;;;;;3.63;2.90;;;;;;;;;;5014899;28;20552;-55
2021/05/04 04:55:50;;;;;;;8.97;2.80;;;;;;;;;;5014528;28;20208;-56
2021/05/04 04:58:17;;;;;;;2.87;2.47;;;;;;;;;;5014964;28;20580;-52
2021/05/04 05:00:43;;;;;;;4.73;2.23;;;;;;;;;;5014645;28;20454;-50
2021/05/04 05:03:10;;;;;;;5.90;2.90;;;;;;;;;;5014702;28;20242;-56
2021/05/04 05:05:37;;;;;;;5.00;3.03;;;;;;;;;;5014773;28;20219;-53
2021/05/04 05:08:04;;;;;;;5.77;2.67;;;;;;;;;;5014428;28;20203;-51
2021/05/04 05:10:31;;;;;;;6.47;3.07;;;;;;;;;;5014122;28;20207;-52
2021/05/04 05:12:58;;;;;;;3.83;2.63;;;;;;;;;;5014979;28;20242;-57
2021/05/04 05:15:25;;;;;;;2.70;2.50;;;;;;;;;;5015733;28;20246;-59
2021/05/04 05:17:51;;;;;;;4.13;3.10;;;;;;;;;;5015307;28;20227;-62
2021/05/04 05:20:18;;;;;;;4.03;3.10;;;;;;;;;;5019459;28;20211;-58
2021/05/04 05:22:45;;;;;;;4.20;2.70;;;;;;;;;;5014464;28;20258;-57
2021/05/04 05:25:12;;;;;;;3.90;3.10;;;;;;;;;;5014268;28;20265;-59
2021/05/04 05:27:39;;;;;;;4.03;2.47;;;;;;;;;;5011360;28;20836;-59
2021/05/04 05:30:06;;;;;;;6.13;2.50;;;;;;;;;;5014481;28;20211;-57
2021/05/04 05:32:33;;;;;;;2.87;2.33;;;;;;;;;;5024205;28;20253;-59
2021/05/04 05:35:00;;;;;;;2.77;2.37;;;;;;;;;;5034058;28;20211;-60
2021/05/04 05:37:26;;;;;;;5.40;2.77;;;;;;;;;;5033437;28;20216;-58
2021/05/04 05:39:54;;;;;;;3.73;2.53;;;;;;;;;;5033493;28;20206;-57
2021/05/04 05:42:20;;;;;;;3.70;2.60;;;;;;;;;;5033619;28;20607;-57
2021/05/04 05:44:47;;;;;;;4.03;2.83;;;;;;;;;;5033545;28;20890;-58
2021/05/04 05:47:13;;;;;;;3.73;2.90;;;;;;;;;;5033401;28;20674;-62
2021/05/04 05:49:41;;;;;;;7.07;2.70;;;;;;;;;;5033285;28;20546;-63
2021/05/04 05:52:09;;;;;;;3.93;3.40;;;;;;;;;;5009255;28;20313;-62
2021/05/04 05:54:35;;;;;;;4.17;3.63;;;;;;;;;;5013557;28;20221;-65
2021/05/04 05:57:03;;;;;;;5.70;4.03;;;;;;;;;;5013214;28;20482;-62
2021/05/04 05:59:30;;;;;;;8.93;3.93;;;;;;;;;;5013521;28;20456;-65
2021/05/04 06:01:56;;;;;;;4.33;3.80;;;;;;;;;;5013224;28;20508;-62
2021/05/04 06:04:23;;;;;;;4.70;3.57;;;;;;;;;;5013235;28;20454;-62
2021/05/04 06:06:49;;;;;;;4.83;3.40;;;;;;;;;;5012732;28;20461;-58
2021/05/04 06:09:16;;;;;;;5.53;4.20;;;;;;;;;;5013003;28;20516;-59
2021/05/04 06:11:42;;;;;;;6.00;3.43;;;;;;;;;;5012840;28;20458;-57
2021/05/04 06:14:10;;;;;;;5.37;3.80;;;;;;;;;;5013078;28;20947;-55
2021/05/04 06:16:36;;;;;;;6.27;3.63;;;;;;;;;;5012628;28;20947;-59
2021/05/04 06:19:03;;;;;;;5.83;3.13;;;;;;;;;;5012999;28;20445;-57
2021/05/04 06:21:29;;;;;;;3.80;3.20;;;;;;;;;;5012466;28;20520;-62
2021/05/04 06:23:56;;;;;;;2.90;2.47;;;;;;;;;;5013005;28;20474;-59
2021/05/04 06:26:23;;;;;;;5.77;2.80;;;;;;;;;;5012437;28;20679;-60
2021/05/04 06:28:50;;;;;;;2.77;2.40;;;;;;;;;;5012671;28;20447;-57
2021/05/04 06:31:18;;;;;;;5.97;2.90;;;;;;;;;;5012767;28;20306;-60
2021/05/04 06:33:45;;;;;;;5.07;2.73;;;;;;;;;;5012452;28;20239;-56
2021/05/04 06:36:12;;;;;;;2.93;2.40;;;;;;;;;;5012470;28;20208;-61
2021/05/04 06:38:39;;;;;;;2.20;1.97;;;;;;;;;;5012600;28;20293;-65
2021/05/04 06:41:06;;;;;;;3.90;2.30;;;;;;;;;;5012418;28;20630;-62
2021/05/04 06:43:32;;;;;;;4.40;2.57;;;;;;;;;;5012304;28;20712;-64
2021/05/04 06:45:59;;;;;;;3.83;2.13;;;;;;;;;;5011910;28;20275;-64
2021/05/04 06:48:26;;;;;;;4.67;1.90;;;;;;;;;;5011977;28;20578;-63
2021/05/04 06:50:54;;;;;;;2.67;1.83;;;;;;;;;;5012309;28;20581;-61
2021/05/04 06:53:21;;;;;;;3.30;1.80;;;;;;;;;;5012257;28;20228;-61
2021/05/04 06:55:47;;;;;;;3.07;2.00;;;;;;;;;;5012445;28;20211;-60
2021/05/04 06:58:14;;;;;;;3.47;1.93;;;;;;;;;;5012289;28;20239;-59
2021/05/04 07:00:40;;;;;;;2.53;2.10;;;;;;;;;;5012255;28;20211;-61
2021/05/04 07:03:07;;;;;;;2.77;2.17;;;;;;;;;;5012092;28;20314;-59
2021/05/04 07:05:34;;;;;;;3.47;2.20;;;;;;;;;;5012446;28;20209;-61
2021/05/04 07:08:01;;;;;;;4.53;2.27;;;;;;;;;;5012054;28;20669;-57
2021/05/04 07:10:28;;;;;;;4.40;2.00;;;;;;;;;;5012453;28;20239;-61
2021/05/04 07:12:54;;;;;;;2.50;2.23;;;;;;;;;;5012106;28;20240;-60
2021/05/04 07:15:21;;;;;;;3.10;2.80;;;;;;;;;;5012272;28;20214;-60
2021/05/04 07:17:48;;;;;;;3.67;2.40;;;;;;;;;;5011722;28;20242;-61
2021/05/04 07:20:19;;;;;;;3.40;2.50;;;;;;;;;;5012198;28;20212;-55
2021/05/04 07:22:46;;;;;;;5.90;2.70;;;;;;;;;;5011971;28;20231;-60
2021/05/04 07:25:13;;;;;;;4.73;2.90;;;;;;;;;;5012334;28;20219;-61
2021/05/04 07:27:39;;;;;;;3.43;2.90;;;;;;;;;;5011931;28;20199;-62
2021/05/04 07:30:07;;;;;;;3.00;2.70;;;;;;;;;;5011696;28;20324;-63
2021/05/04 07:32:33;;;;;;;3.00;2.70;;;;;;;;;;5012192;28;20234;-61
2021/05/04 07:35:01;;;;;;;3.93;2.47;;;;;;;;;;5011966;28;20266;-58
2021/05/04 07:37:27;;;;;;;3.80;2.53;;;;;;;;;;5011704;28;20219;-58
2021/05/04 07:39:55;;;;;;;5.27;2.60;;;;;;;;;;5011695;28;20669;-64
2021/05/04 07:42:21;;;;;;;5.03;2.90;;;;;;;;;;5011342;28;20792;-59
2021/05/04 07:44:48;;;;;;;4.50;2.83;;;;;;;;;;5011346;28;20266;-62
2021/05/04 07:47:14;;;;;;;3.37;2.90;;;;;;;;;;5011827;28;20207;-57
2021/05/04 07:49:44;;;;;;;6.10;3.50;;;;;;;;;;5011680;28;20221;-55
2021/05/04 07:52:10;;;;;;;4.30;3.90;;;;;;;;;;5011657;28;20326;-51
2021/05/04 07:54:37;;;;;;;4.20;3.73;;;;;;;;;;5011697;28;20671;-55
2021/05/04 07:57:04;;;;;;;6.00;3.27;;;;;;;;;;5011229;28;20211;-64
2021/05/04 07:59:31;;;;;;;5.30;3.30;;;;;;;;;;5015516;28;20589;-64
2021/05/04 08:01:59;;;;;;;3.40;2.93;;;;;;;;;;5015415;28;20277;-57
2021/05/04 08:04:25;;;;;;;6.83;3.40;;;;;;;;;;5015678;28;20320;-66
2021/05/04 08:06:52;;;;;;;5.53;3.40;;;;;;;;;;5015029;28;20600;-66
2021/05/04 08:09:18;;;;;;;4.13;3.63;;;;;;;;;;5015383;28;20219;-57
2021/05/04 08:11:45;;;;;;;3.60;3.23;;;;;;;;;;5015861;28;20302;-63
2021/05/04 08:14:12;;;;;;;5.63;3.10;;;;;;;;;;5016793;28;20205;-63
2021/05/04 08:16:39;;;;;;;4.30;3.00;;;;;;;;;;4996715;28;20268;-62
2021/05/04 08:19:06;;;;;;;5.13;3.00;;;;;;;;;;4995491;28;20704;-65
2021/05/04 08:21:35;;;;;;;3.57;3.07;;;;;;;;;;4995518;28;20277;-65
2021/05/04 08:24:01;;;;;;;4.83;3.03;;;;;;;;;;5010457;28;20232;-66
2021/05/04 08:26:28;;;;;;;5.50;3.67;;;;;;;;;;5015814;28;20690;-65
2021/05/04 08:28:55;;;;;;;4.27;3.37;;;;;;;;;;5015583;28;20646;-65
2021/05/04 08:31:23;;;;;;;5.40;3.30;;;;;;;;;;5009899;28;20197;-66
2021/05/04 08:33:50;;;;;;;6.87;2.80;;;;;;;;;;5004542;28;20580;-67
2021/05/04 08:36:16;;;;;;;4.43;2.13;;;;;;;;;;4995299;28;20210;-59
2021/05/04 08:38:43;;;;;;;6.43;1.90;;;;;;;;;;4995406;28;20596;-62
2021/05/04 08:41:09;;;;;;;2.87;1.07;;;;;;;;;;4995441;28;20243;-62
2021/05/04 08:43:36;;;;;;;4.13;1.30;;;;;;;;;;5010760;28;20222;-61
2021/05/04 08:46:03;;;;;;;6.23;1.70;;;;;;;;;;5034185;28;20221;-62
2021/05/04 08:48:31;;;;;;;3.57;1.30;;;;;;;;;;5034322;28;20209;-62
2021/05/04 08:50:58;;;;;;;4.50;1.63;;;;;;;;;;5034361;28;20214;-61
2021/05/04 08:53:25;;;;;;;2.53;1.10;;;;;;;;;;5033966;28;20254;-63
2021/05/04 08:55:51;;;;;;;4.03;1.30;;;;;;;;;;5034197;28;20236;-62
2021/05/04 08:58:20;;;;;;;3.00;1.23;;;;;;;;;;4994790;28;20282;-62
2021/05/04 09:00:47;;;;;;;5.97;1.80;;;;;;;;;;4995003;28;20231;-64
2021/05/04 09:03:16;;;;;;;3.43;1.60;;;;;;;;;;4995028;28;20319;-65
2021/05/04 09:05:49;;;;;;;4.20;1.43;;;;;;;;;;4994795;28;20219;-68
2021/05/04 09:08:36;;;;;;;4.73;1.27;;;;;;;;;;4995055;28;20618;-68
2021/05/04 09:11:40;;;;;;;2.87;1.17;;;;;;;;;;4996348;28;20840;-67
2021/05/04 09:14:11;;;;;;;5.13;1.50;;;;;;;;;;4992477;28;20302;-69
2021/05/04 09:16:42;;;;;;;3.43;1.27;;;;;;;;;;5027499;28;20206;-68
2021/05/04 09:19:21;;;;;;;2.70;1.20;;;;;;;;;;5034019;28;20296;-68
2021/05/04 09:21:48;;;;;;;4.60;1.60;;;;;;;;;;5033837;28;20246;-68
2021/05/04 09:24:23;;;;;;;3.70;1.20;;;;;;;;;;5033857;28;20651;-69
2021/05/04 09:26:50;;;;;;;4.37;1.80;;;;;;;;;;5033259;28;20224;-69
2021/05/04 09:29:17;;;;;;;2.60;1.70;;;;;;;;;;5033971;28;20202;-70
2021/05/04 09:31:43;;;;;;;3.50;1.80;;;;;;;;;;5033551;28;20206;-68
2021/05/04 09:34:11;;;;;;;3.63;1.73;;;;;;;;;;5034054;28;20210;-67
2021/05/04 09:36:38;;;;;;;3.73;2.33;;;;;;;;;;5033377;28;20224;-67
2021/05/04 09:39:06;;;;;;;6.47;2.93;;;;;;;;;;5033486;28;20291;-67
2021/05/04 09:41:32;;;;;;;6.27;2.63;;;;;;;;;;5033215;28;20725;-65
2021/05/04 09:43:59;;;;;;;3.00;1.87;;;;;;;;;;5033788;28;20247;-65
2021/05/04 09:46:40;;;;;;;4.90;2.67;;;;;;;;;;5033621;28;20604;-63
2021/05/04 09:49:22;;;;;;;6.97;2.80;;;;;;;;;;5033345;28;20212;-69
2021/05/04 09:51:49;;;;;;;4.03;2.33;;;;;;;;;;5032638;28;20213;-69
2021/05/04 09:54:24;;;;;;;3.40;2.03;;;;;;;;;;5033445;28;20583;-69
2021/05/04 09:56:51;;;;;;;3.80;1.57;;;;;;;;;;5033242;28;20752;-68
2021/05/04 09:59:18;;;;;;;3.23;2.37;;;;;;;;;;5033610;28;20237;-68
2021/05/04 10:01:44;;;;;;;4.40;1.93;;;;;;;;;;5033541;28;20218;-68
2021/05/04 10:04:11;;;;;;;6.23;2.33;;;;;;;;;;5033876;28;20207;-67
2021/05/04 10:06:38;;;;;;;5.67;1.80;;;;;;;;;;5013273;28;20206;-66
2021/05/04 10:09:05;;;;;;;3.83;1.60;;;;;;;;;;5011234;28;20222;-67
2021/05/04 10:11:32;;;;;;;5.03;1.70;;;;;;;;;;5013408;28;20207;-67
2021/05/04 10:13:59;;;;;;;4.03;1.97;;;;;;;;;;5013069;28;20296;-67
2021/05/04 10:16:27;;;;;;;2.93;1.93;;;;;;;;;;5012845;28;20667;-68
2021/05/04 10:18:57;;;;;;;6.00;1.90;;;;;;;;;;5012475;28;20639;-67
2021/05/04 10:21:25;;;;;;;8.30;2.47;;;;;;;;;;5011205;28;20199;-67
2021/05/04 10:23:52;;;;;;;3.87;1.97;;;;;;;;;;5013041;28;20238;-65
2021/05/04 10:26:19;;;;;;;4.93;1.90;;;;;;;;;;5012683;28;20215;-67
2021/05/04 10:28:56;;;;;;;5.27;1.67;;;;;;;;;;5013000;28;20207;-69
2021/05/04 10:31:33;;;;;;;5.07;1.83;;;;;;;;;;5012562;28;20253;-68
2021/05/04 10:34:21;;;;;;;4.23;2.00;;;;;;;;;;5012968;28;20223;-68
2021/05/04 10:36:47;;;;;;;4.33;1.93;;;;;;;;;;5012326;28;20212;-71
2021/05/04 10:39:14;;;;;;;3.23;1.70;;;;;;;;;;5012803;28;20228;-68
2021/05/04 10:41:54;;;;;;;3.83;1.77;;;;;;;;;;5012178;28;20220;-69
2021/05/04 10:44:28;;;;;;;4.97;2.57;;;;;;;;;;5109631;27;20504;-68
2021/05/04 10:46:56;;;;;;;3.37;1.80;;;;;;;;;;5109271;28;20228;-66
2021/05/04 10:49:38;;;;;;;5.43;2.03;;;;;;;;;;5109283;28;20293;-64
2021/05/04 10:52:04;;;;;;;8.83;2.40;;;;;;;;;;5109000;28;20225;-63
2021/05/04 10:54:51;;;;;;;6.17;1.83;;;;;;;;;;5109522;28;20212;-63
2021/05/04 10:57:17;;;;;;;9.03;2.60;;;;;;;;;;5108794;28;20211;-70
2021/05/04 10:59:46;;;;;;;8.80;2.63;;;;;;;;;;5109335;28;20208;-70
2021/05/04 11:02:30;;;;;;;5.23;2.60;;;;;;;;;;5109118;28;20231;-68
2021/05/04 11:04:58;;;;;;;8.07;2.77;;;;;;;;;;5109295;28;20254;-67
2021/05/04 11:07:51;;;;;;;7.87;2.37;;;;;;;;;;5108800;28;20664;-64
2021/05/04 11:10:18;;;;;;;8.87;2.87;;;;;;;;;;5062560;28;20215;-67
2021/05/04 11:12:44;;;;;;;4.80;2.20;;;;;;;;;;5107563;28;20216;-65
2021/05/04 11:15:22;;;;;;;7.83;3.00;;;;;;;;;;5109477;28;20264;-68
2021/05/04 11:17:48;;;;;;;7.00;2.60;;;;;;;;;;5108863;28;20211;-68
2021/05/04 11:20:34;;;;;;;10.47;3.37;;;;;;;;;;5108537;28;20204;-68
2021/05/04 11:23:01;;;;;;;14.43;2.13;;;;;;;;;;5109102;28;20361;-59
2021/05/04 11:25:32;;;;;;;6.83;2.40;;;;;;;;;;5108993;28;20204;-62
2021/05/04 11:27:58;;;;;;;7.50;3.00;;;;;;;;;;5108693;28;20214;-62
2021/05/04 11:30:32;;;;;;;12.17;2.70;;;;;;;;;;5108579;28;20203;-60
2021/05/04 11:32:59;;;;;;;5.53;1.50;;;;;;;;;;5107435;28;20220;-63
2021/05/04 11:35:36;;;;;;;8.37;2.37;;;;;;;;;;5108612;28;20208;-63
2021/05/04 11:38:03;;;;;;;10.27;2.67;;;;;;;;;;5108009;28;20210;-61
2021/05/04 11:40:30;;;;;;;8.60;2.10;;;;;;;;;;5108391;28;20204;-62
2021/05/04 11:42:59;;;;;;;8.17;2.03;;;;;;;;;;5108299;28;20285;-62
2021/05/04 11:45:28;;;;;;;15.10;2.83;;;;;;;;;;5108663;28;20204;-62
2021/05/04 11:47:56;;;;;;;11.43;2.50;;;;;;;;;;5107970;28;20209;-62
2021/05/04 11:50:24;;;;;;;5.73;2.03;;;;;;;;;;5108184;28;20206;-62
2021/05/04 11:52:51;;;;;;;13.70;2.27;;;;;;;;;;5108256;28;20234;-63
2021/05/04 11:55:19;;;;;;;12.60;2.30;;;;;;;;;;5097380;28;20212;-59
2021/05/04 11:57:47;;;;;;;7.07;2.13;;;;;;;;;;5094372;28;20203;-61
2021/05/04 12:00:16;;;;;;;9.20;2.10;;;;;;;;;;5094298;28;20210;-63
2021/05/04 12:02:43;;;;;;;10.50;2.60;;;;;;;;;;5093712;28;20221;-62
2021/05/04 12:05:10;;;;;;;6.50;1.70;;;;;;;;;;5093932;28;20695;-62
2021/05/04 12:07:43;;;;;;;9.03;2.30;;;;;;;;;;5094249;28;20231;-62
2021/05/04 12:10:28;;;;;;;9.77;1.70;;;;;;;;;;5093971;28;20686;-61
2021/05/04 12:12:56;;;;;;;7.00;2.50;;;;;;;;;;5094302;28;20274;-62
2021/05/04 12:15:23;;;;;;;8.57;2.20;;;;;;;;;;5094254;28;20287;-62
2021/05/04 12:18:12;;;;;;;9.37;2.40;;;;;;;;;;5094113;28;20568;-61
2021/05/04 12:20:40;;;;;;;7.60;2.07;;;;;;;;;;5089553;28;20208;-61
2021/05/04 12:23:08;;;;;;;6.77;2.13;;;;;;;;;;5094088;28;20301;-62
2021/05/04 12:25:39;;;;;;;6.77;2.00;;;;;;;;;;5093927;28;20200;-62
2021/05/04 12:28:06;;;;;;;4.80;2.07;;;;;;;;;;5091380;28;20215;-60
2021/05/04 12:30:33;;;;;;;5.10;1.90;;;;;;;;;;5093306;28;20253;-60
2021/05/04 12:32:59;;;;;;;11.00;2.00;;;;;;;;;;5093665;28;20225;-60
2021/05/04 12:35:28;;;;;;;5.17;1.60;;;;;;;;;;5093498;28;20196;-63
2021/05/04 12:38:07;;;;;;;5.93;1.77;;;;;;;;;;5092923;28;20208;-63
2021/05/04 12:40:33;;;;;;;14.17;2.63;;;;;;;;;;5093351;28;20205;-63
2021/05/04 12:43:17;;;;;;;5.93;1.90;;;;;;;;;;5092462;28;20616;-62
2021/05/04 12:46:02;;;;;;;6.00;1.97;;;;;;;;;;5093428;28;20214;-62
2021/05/04 12:48:29;;;;;;;7.10;2.20;;;;;;;;;;5093338;28;20259;-62
2021/05/04 12:51:01;;;;;;;11.83;2.13;;;;;;;;;;5093162;28;20217;-62
2021/05/04 12:53:32;;;;;;;5.83;1.87;;;;;;;;;;5093503;28;20616;-62
2021/05/04 12:56:00;;;;;;;5.10;1.70;;;;;;;;;;5093251;28;20266;-62
2021/05/04 12:58:26;;;;;;;7.57;2.30;;;;;;;;;;5093484;28;20255;-62
2021/05/04 13:01:06;;;;;;;9.17;2.33;;;;;;;;;;5093001;28;20208;-63
2021/05/04 13:03:44;;;;;;;9.83;2.03;;;;;;;;;;5092735;28;20352;-62
2021/05/04 13:06:12;;;;;;;11.33;2.43;;;;;;;;;;5071782;28;20217;-62
2021/05/04 13:08:50;;;;;;;4.73;2.10;;;;;;;;;;5073268;28;20745;-62
2021/05/04 13:11:19;;;;;;;9.30;2.10;;;;;;;;;;5072912;28;20221;-62
2021/05/04 13:13:56;;;;;;;6.27;1.60;;;;;;;;;;5072513;28;20230;-62
2021/05/04 13:19:45;;;;;;;12.63;2.00;;;;;;;;;;5071783;28;20259;-62
2021/05/04 13:30:39;;;;;;;8.13;1.93;;;;;;;;;;5092382;28;20206;-63
2021/05/04 13:33:09;;;;;;;5.37;1.57;;;;;;;;;;5092922;28;20219;-59
2021/05/04 13:35:38;;;;;;;11.87;2.03;;;;;;;;;;5092580;28;20207;-61
2021/05/04 13:38:08;;;;;;;3.80;1.60;;;;;;;;;;5092663;28;20204;-58
2021/05/04 13:44:44;;;;;;;7.13;1.33;;;;;;;;;;5092464;28;20204;-58
2021/05/04 13:49:03;;;;;;;6.93;1.87;;;;;;;;;;5092656;28;20234;-60
2021/05/04 13:51:30;;;;;;;8.37;1.53;;;;;;;;;;5091857;28;20216;-60
2021/05/04 13:53:56;;;;;;;5.63;1.47;;;;;;;;;;5092609;28;20277;-60
2021/05/04 13:56:23;;;;;;;5.10;1.60;;;;;;;;;;5092133;28;20242;-60
2021/05/04 13:58:50;;;;;;;8.70;2.00;;;;;;;;;;5092123;28;20219;-58
2021/05/04 14:01:20;;;;;;;9.57;1.97;;;;;;;;;;5092214;28;20208;-60
2021/05/04 14:03:57;;;;;;;7.17;1.87;;;;;;;;;;5091733;28;20232;-57
2021/05/04 14:06:44;;;;;;;4.07;1.60;;;;;;;;;;5091962;28;20208;-59
2021/05/04 14:09:59;;;;;;;6.73;2.00;;;;;;;;;;5092026;28;20204;-57
2021/05/04 14:15:48;;;;;;;8.00;1.97;;;;;;;;;;5091936;28;20225;-65
2021/05/04 14:26:29;;;;;;;7.47;1.77;;;;;;;;;;5052274;28;20215;-62
2021/05/04 14:28:56;;;;;;;5.33;1.87;;;;;;;;;;5091717;28;20239;-61
2021/05/04 14:31:23;;;;;;;2.87;1.30;;;;;;;;;;5091503;28;20675;-63
2021/05/04 14:33:49;;;;;;;7.27;1.73;;;;;;;;;;5091685;28;20227;-63
2021/05/04 14:36:42;;;;;;;9.97;1.63;;;;;;;;;;5091564;28;20208;-63
2021/05/04 14:39:23;;;;;;;6.20;1.70;;;;;;;;;;5091951;28;20668;-60
2021/05/04 14:55:51;;;;;;;7.80;2.13;;;;;;;;;;5091755;28;20245;-62
2021/05/04 14:58:31;;;;;;;6.60;2.00;;;;;;;;;;5091581;28;20204;-61
2021/05/04 15:01:03;;;;;;;12.87;2.87;;;;;;;;;;5091666;28;20353;-61
2021/05/04 15:03:31;;;;;;;10.30;2.10;;;;;;;;;;5091759;28;20237;-63
2021/05/04 15:05:58;;;;;;;7.20;2.73;;;;;;;;;;5091238;28;20205;-63
2021/05/04 15:08:24;;;;;;;11.03;2.37;;;;;;;;;;5091255;28;20213;-63
2021/05/04 15:10:51;;;;;;;6.90;2.17;;;;;;;;;;5090615;28;20227;-63
2021/05/04 15:13:19;;;;;;;4.77;1.97;;;;;;;;;;5091693;28;20223;-60
2021/05/04 15:15:58;;;;;;;8.30;2.73;;;;;;;;;;5091201;28;20219;-60
2021/05/04 15:21:33;;;;;;;7.87;2.00;;;;;;;;;;5090809;28;20257;-61
2021/05/04 15:24:00;;;;;;;10.77;2.20;;;;;;;;;;5091369;28;20614;-61
2021/05/04 15:26:26;;;;;;;6.67;1.80;;;;;;;;;;5090865;28;20259;-61
2021/05/04 15:28:53;;;;;;;7.43;2.20;;;;;;;;;;5089984;28;20208;-61
2021/05/04 15:31:22;;;;;;;7.10;1.70;;;;;;;;;;5093601;28;20212;-61
2021/05/04 15:33:49;;;;;;;6.57;1.90;;;;;;;;;;5095209;28;20221;-61
2021/05/04 15:36:16;;;;;;;4.53;1.70;;;;;;;;;;5094756;28;20215;-62
2021/05/04 15:38:43;;;;;;;8.60;2.03;;;;;;;;;;5094460;28;20611;-61